Buoy 44845

sailwx.info

Track history (hours):
 
Tides and Currents Weather Stations Pressure Air Temp Water Temp Dewpoint Dewpoint Depression Visibility Wind Speed Wind Dir Waves Ship Positions

Drifting buoy 44845

Last reported at 2015-May-23 11:01 UTC. Time now 2015-May-23 11:57 UTC.
Position N 75°04' E 010°56'.

Water temperature 3.9 ° C

Date/timePositionNaut miles runAvg speedWind from/ knotsBaromVisibWave heightAir tempDewpointWater temp
2015-May-23 11:01N 75°04' E 010°56'1 1.0 3.9
2015-May-23 10:01N 75°05' E 010°56'1 0.8 4.1
2015-May-23 09:01N 75°06' E 010°57'1 0.5 4.4
2015-May-23 08:01N 75°06' E 010°59'0 0.4 4.6
2015-May-23 07:01N 75°06' E 011°00'0 0.4 4.5
2015-May-23 06:01N 75°05' E 011°00'0 0.5 4.5
2015-May-23 05:01N 75°05' E 010°58'1 0.9 4.1
2015-May-23 04:01N 75°06' E 010°56'1 0.9 3.8
2015-May-23 03:01N 75°07' E 010°54'1 0.9 3.8
2015-May-23 02:01N 75°08' E 010°55'1 1.0 3.9
2015-May-23 01:01N 75°09' E 010°56'1 0.7 4.1
2015-May-23 00:01N 75°09' E 010°58'0 0.4 4.4
2015-May-22 23:01N 75°09' E 010°59'0 0.2 4.4
2015-May-22 22:01N 75°09' E 010°59'0 0.4 4.3
2015-May-22 21:01N 75°09' E 010°58'1 0.7 3.8
2015-May-22 20:01N 75°09' E 010°56'1 0.9 3.8
2015-May-22 19:01N 75°10' E 010°53'1 0.9 3.8
2015-May-22 18:01N 75°10' E 010°52'1 0.8 3.9
2015-May-22 17:01N 75°11' E 010°51'1 0.7 4.1
2015-May-22 16:01N 75°12' E 010°53'1 0.7 4.3
2015-May-22 15:01N 75°12' E 010°54'0 0.5 4.6
2015-May-22 14:01N 75°12' E 010°56'0 0.3 4.5
2015-May-22 13:01N 75°12' E 010°57'0 0.3 4.4
2015-May-22 12:01N 75°12' E 010°56'1 0.7 4.0
2015-May-22 11:01N 75°12' E 010°53'1 1.0 3.8
2015-May-22 10:01N 75°13' E 010°50'1 1.0 3.7
2015-May-22 09:01N 75°14' E 010°48'1 0.8 3.8
2015-May-22 08:01N 75°15' E 010°47'1 0.7 4.0
2015-May-22 07:01N 75°15' E 010°48'1 0.5 4.2
2015-May-22 06:01N 75°16' E 010°49'0 0.5 4.3
2015-May-22 05:01N 75°15' E 010°51'0 0.5 4.4
2015-May-22 04:01N 75°15' E 010°52'0 0.4 4.4
2015-May-22 03:01N 75°15' E 010°52'1 0.6 4.2
2015-May-22 02:01N 75°15' E 010°49'1 1.0 4.1
2015-May-22 01:01N 75°15' E 010°46'1 1.0 3.9
2015-May-22 00:01N 75°16' E 010°43'1 0.8 3.9
2015-May-21 23:01N 75°17' E 010°41'1 0.7 1.7
2015-May-21 22:01N 75°17' E 010°41'1 0.7 2.3
2015-May-21 21:01N 75°18' E 010°43'0 0.4 2.6
2015-May-21 20:01N 75°18' E 010°44'0 0.3 2.6
2015-May-21 19:01N 75°18' E 010°45'1 0.6 2.7
2015-May-21 18:01N 75°17' E 010°46'1 0.5 2.7
2015-May-21 17:01N 75°17' E 010°45'1 1.0 2.7
2015-May-21 16:01N 75°17' E 010°41'1 1.1 2.5
2015-May-21 15:01N 75°17' E 010°37'1 0.9 2.2
2015-May-21 14:01N 75°18' E 010°34'1 0.7 2.2
2015-May-21 13:01N 75°18' E 010°33'1 0.7 2.4
2015-May-21 12:01N 75°19' E 010°33'1 0.6 2.7
2015-May-21 11:01N 75°20' E 010°35'1 0.6 2.8
2015-May-21 10:01N 75°20' E 010°37'1 0.6 2.8
2015-May-21 09:01N 75°19' E 010°38'1 0.5 2.7
2015-May-21 08:01N 75°19' E 010°38'1 0.7 2.7
2015-May-21 07:01N 75°18' E 010°36'1 1.0 2.7
2015-May-21 06:01N 75°18' E 010°32'1 1.1 2.6
2015-May-21 05:01N 75°18' E 010°28'1 0.8 2.4
2015-May-21 04:01N 75°19' E 010°25'1 0.5 2.2
2015-May-21 03:01N 75°19' E 010°24'0 0.5 2.2
2015-May-21 02:01N 75°19' E 010°24'0 0.5 2.3
2015-May-21 01:01N 75°20' E 010°25'1 0.5 2.3
2015-May-21 00:01N 75°20' E 010°27'1 0.6 2.7
2015-May-20 23:01N 75°20' E 010°29'1 0.6 2.8
2015-May-20 22:01N 75°19' E 010°30'1 0.9 2.9
2015-May-20 21:01N 75°18' E 010°27'1 1.1 2.9
2015-May-20 20:01N 75°18' E 010°22'1 1.1 2.7
2015-May-20 19:01N 75°18' E 010°18'1 0.7 2.4
2015-May-20 18:01N 75°18' E 010°16'0 0.2 2.2
2015-May-20 17:01N 75°19' E 010°15'0 0.4 2.3
2015-May-20 16:01N 75°19' E 010°17'1 0.6 2.4
2015-May-20 15:01N 75°19' E 010°19'1 0.7 2.7
2015-May-20 14:01N 75°19' E 010°22'1 0.8 3.1
2015-May-20 13:01N 75°18' E 010°23'1 1.0 3.5
2015-May-20 12:01N 75°17' E 010°20'1 1.2 3.5
2015-May-20 11:01N 75°17' E 010°16'1 1.4 3.5
2015-May-20 10:01N 75°17' E 010°11'1 1.3 3.5
2015-May-20 09:01N 75°18' E 010°05'1 1.1 3.5
2015-May-20 08:01N 75°18' E 010°01'1 0.8 3.5
2015-May-20 07:01N 75°18' E 009°58'1 0.6 3.2
2015-May-20 06:01N 75°18' E 009°56'1 0.5 3.1
2015-May-20 05:01N 75°18' E 009°54'1 0.5 3.0
2015-May-20 04:01N 75°18' E 009°52'1 0.6 3.2
2015-May-20 03:01N 75°17' E 009°50'1 0.8 3.3
2015-May-20 02:01N 75°17' E 009°48'2 1.1 3.4
2015-May-20 00:01N 75°16' E 009°39'1 1.1 3.5
2015-May-19 23:01N 75°16' E 009°35'1 0.8 3.0
2015-May-19 22:01N 75°17' E 009°32'0 0.4 3.0
2015-May-19 21:01N 75°17' E 009°31'0 0.0 2.2
2015-May-19 20:01N 75°17' E 009°31'0 0.4 2.2
2015-May-19 19:01N 75°17' E 009°33'1 0.6 2.3
2015-May-19 18:01N 75°17' E 009°35'1 0.6 2.3
2015-May-19 17:01N 75°17' E 009°37'0 0.5 2.4
2015-May-19 16:01N 75°16' E 009°39'0 0.4 2.3
2015-May-19 15:01N 75°16' E 009°40'0 0.3 2.3
2015-May-19 14:01N 75°16' E 009°41'0 0.2 2.3
2015-May-19 13:01N 75°16' E 009°41'0 0.1 2.2
2015-May-19 12:01N 75°16' E 009°41'0 0.1 2.3
2015-May-19 11:01N 75°16' E 009°41'0 0.2 2.3
2015-May-19 10:01N 75°15' E 009°40'0 0.1 2.1
2015-May-19 09:01N 75°15' E 009°40'0 0.1 2.1
2015-May-19 08:01N 75°15' E 009°40'0 0.1 2.0
2015-May-19 07:01N 75°15' E 009°40'0 0.2 1.8
2015-May-19 06:01N 75°15' E 009°41'0 0.3 2.1
2015-May-19 05:01N 75°15' E 009°42'0 0.5 1.5
2015-May-19 04:01N 75°15' E 009°44'1 0.6 1.6
2015-May-19 03:01N 75°15' E 009°47'1 0.8 1.6
2015-May-19 02:01N 75°15' E 009°50'1 0.9 1.7
2015-May-19 01:01N 75°14' E 009°53'1 0.7 1.6
2015-May-19 00:01N 75°14' E 009°56'0 0.4 1.6
2015-May-18 23:01N 75°14' E 009°57'1 0.5 1.7
2015-May-18 22:01N 75°14' E 009°55'1 0.9 1.8
2015-May-18 21:01N 75°13' E 009°52'1 1.1 2.0
2015-May-18 20:01N 75°13' E 009°48'1 1.1 2.0
2015-May-18 19:01N 75°12' E 009°45'1 0.9 2.0
2015-May-18 18:01N 75°12' E 009°42'1 0.8 2.1
2015-May-18 17:01N 75°11' E 009°39'1 0.7 2.1
2015-May-18 16:01N 75°11' E 009°36'1 0.6 2.1
2015-May-18 15:01N 75°11' E 009°34'1 0.6 2.1
2015-May-18 14:01N 75°10' E 009°32'1 0.8 2.3
2015-May-18 13:01N 75°10' E 009°30'1 0.9 2.4
2015-May-18 12:01N 75°09' E 009°26'1 1.0 2.6
2015-May-18 11:01N 75°09' E 009°23'1 1.0 2.3
2015-May-18 10:01N 75°09' E 009°19'1 0.9 2.1
2015-May-18 09:01N 75°09' E 009°15'1 0.8 1.9
2015-May-18 08:01N 75°09' E 009°12'1 0.7 1.9
2015-May-18 07:01N 75°09' E 009°09'1 0.6 1.9
2015-May-18 06:01N 75°09' E 009°07'1 0.5 1.7
2015-May-18 05:01N 75°09' E 009°05'0 0.4 1.5
2015-May-18 04:01N 75°09' E 009°04'0 0.4 1.3
2015-May-18 03:01N 75°09' E 009°02'0 0.4 1.1
2015-May-18 02:01N 75°09' E 009°01'0 0.4 0.8
2015-May-18 01:01N 75°09' E 008°59'0 0.4 1.1
2015-May-18 00:01N 75°09' E 008°58'0 0.4 1.2
2015-May-17 23:01N 75°09' E 008°56'0 0.4 1.3
2015-May-17 22:01N 75°09' E 008°55'0 0.4 1.4
2015-May-17 21:01N 75°09' E 008°53'0 0.3 1.4
2015-May-17 20:01N 75°08' E 008°52'0 0.3 1.4
2015-May-17 19:01N 75°08' E 008°51'0 0.3 1.5
2015-May-17 18:01N 75°08' E 008°50'0 0.2 2.0
2015-May-17 17:01N 75°08' E 008°49'0 0.2 2.0
2015-May-17 16:01N 75°08' E 008°48'0 0.2 1.9
2015-May-17 14:01N 75°08' E 008°47'0 0.2 1.5
2015-May-17 13:01N 75°08' E 008°46'0 0.3 1.2
2015-May-17 12:01N 75°08' E 008°46'0 0.2 1.0
2015-May-17 11:01N 75°07' E 008°45'0 0.3 0.9
2015-May-17 10:01N 75°07' E 008°44'0 0.2 0.8
2015-May-17 09:01N 75°07' E 008°44'0 0.3 0.6
2015-May-17 08:01N 75°07' E 008°43'0 0.3 1.4
2015-May-17 07:01N 75°06' E 008°43'0 0.4 0.1
2015-May-17 06:01N 75°06' E 008°42'0 0.3 -0.0
2015-May-17 05:01N 75°06' E 008°42'0 0.2 0.5
2015-May-17 04:01N 75°06' E 008°42'0 0.2 0.1
2015-May-17 03:01N 75°06' E 008°42'0 0.3 0.5
2015-May-17 02:01N 75°05' E 008°41'0 0.2 0.4
2015-May-17 01:01N 75°05' E 008°41'0 0.3 0.7
2015-May-17 00:01N 75°05' E 008°40'0 0.4 0.9
2015-May-16 23:01N 75°05' E 008°40'0 0.4 1.5
2015-May-16 22:01N 75°04' E 008°40'0 0.4 1.9
2015-May-16 21:01N 75°04' E 008°40'0 0.4 1.6
2015-May-16 20:01N 75°03' E 008°40'0 0.4 1.7
2015-May-16 19:01N 75°03' E 008°40'0 0.4 1.1
2015-May-16 18:01N 75°03' E 008°40'0 0.4 4.4
2015-May-16 17:01N 75°02' E 008°40'0 0.4
2015-May-16 16:01N 75°02' E 008°40'0 0.2 4.0
2015-May-16 15:01N 75°02' E 008°40'0 0.3 4.2
2015-May-16 14:01N 75°01' E 008°39'0 0.4 4.1
2015-May-16 13:01N 75°01' E 008°39'1 0.8 4.0
2015-May-16 12:01N 75°00' E 008°38'0 0.0 4.0
2015-May-16 11:01N 75°00' E 008°38'0 0.4 4.0
2015-May-16 10:01N 75°00' E 008°37'0 0.5 4.0
2015-May-16 09:01N 74°60' E 008°36'1 0.5 3.9
2015-May-16 08:01N 74°59' E 008°35'0 0.5 3.9
2015-May-16 07:01N 74°59' E 008°35'0 0.4 3.9
2015-May-16 06:01N 74°58' E 008°35'0 0.4 3.9
2015-May-16 05:01N 74°58' E 008°34'0 0.5 3.8
2015-May-16 04:01N 74°58' E 008°33'0 0.5 3.8
2015-May-16 03:01N 74°57' E 008°31'1 0.5 3.8
2015-May-16 02:01N 74°57' E 008°30'1 0.5 3.9
2015-May-16 00:01N 74°56' E 008°27'0 0.4 3.9
2015-May-15 23:01N 74°56' E 008°26'0 0.4 3.8
2015-May-15 22:01N 74°56' E 008°24'1 0.5 3.7
2015-May-15 21:01N 74°55' E 008°23'1 0.5 3.7
2015-May-15 20:01N 74°55' E 008°21'0 0.5 3.8
2015-May-15 19:01N 74°55' E 008°20'0 0.4 3.8
2015-May-15 18:01N 74°55' E 008°19'0 0.4 3.8
2015-May-15 17:01N 74°54' E 008°17'0 0.4 3.8
2015-May-15 16:01N 74°54' E 008°16'0 0.4 3.8
2015-May-15 15:01N 74°54' E 008°15'0 0.4 3.7
2015-May-15 14:01N 74°54' E 008°14'0 0.4 3.7
2015-May-15 13:01N 74°53' E 008°12'0 0.3 3.7
2015-May-15 12:01N 74°53' E 008°11'0 0.4 3.7
2015-May-15 11:01N 74°53' E 008°10'0 0.4 3.8
2015-May-15 10:01N 74°53' E 008°08'1 0.5 3.8
2015-May-15 09:01N 74°53' E 008°07'0 0.4 3.8
2015-May-15 08:01N 74°52' E 008°05'0 0.3 3.8
2015-May-15 07:01N 74°52' E 008°04'0 0.3 3.8
2015-May-15 06:01N 74°52' E 008°03'0 0.2 3.8
2015-May-15 05:01N 74°52' E 008°03'0 0.2 3.8
2015-May-15 04:01N 74°52' E 008°02'0 0.2 3.8
2015-May-15 03:01N 74°51' E 008°01'0 0.2 3.9
2015-May-15 02:01N 74°51' E 008°01'0 0.2 3.9
2015-May-15 01:01N 74°51' E 008°00'0 0.2 3.9
2015-May-15 00:01N 74°51' E 007°60'0 0.3 3.9
2015-May-14 23:01N 74°51' E 007°59'0 0.3 3.9
2015-May-14 22:01N 74°51' E 007°57'0 0.3 3.9
2015-May-14 21:01N 74°51' E 007°56'0 0.2 3.9
2015-May-14 20:01N 74°51' E 007°56'0 0.2 3.8
2015-May-14 19:01N 74°51' E 007°55'0 0.1 3.8
2015-May-14 18:01N 74°51' E 007°55'0 0.1 3.8
2015-May-14 17:01N 74°51' E 007°54'0 0.3 3.8
2015-May-14 16:01N 74°51' E 007°53'0 0.0 3.8
2015-May-14 15:01N 74°51' E 007°53'0 0.2 3.8
2015-May-14 14:01N 74°51' E 007°53'0 0.3 3.8
2015-May-14 13:01N 74°51' E 007°52'1 0.5 3.8
2015-May-14 12:01N 74°51' E 007°50'1 0.6 4.2
2015-May-14 11:01N 74°52' E 007°49'1 0.6 4.3
2015-May-14 10:01N 74°52' E 007°47'1 0.5 4.4
2015-May-14 09:01N 74°52' E 007°45'0 0.4 4.4
2015-May-14 08:01N 74°52' E 007°43'0 0.3 4.4
2015-May-14 07:01N 74°52' E 007°42'0 0.2 4.4
2015-May-14 06:01N 74°52' E 007°41'0 0.3 4.4
2015-May-14 05:01N 74°53' E 007°40'0 0.3 4.4
2015-May-14 04:01N 74°53' E 007°40'0 0.2 4.4
2015-May-14 03:01N 74°53' E 007°39'0 0.3 4.3
2015-May-14 02:01N 74°53' E 007°39'0 0.3 4.3
2015-May-14 01:01N 74°54' E 007°39'0 0.4 4.3
2015-May-14 00:01N 74°54' E 007°38'0 0.3 4.0
2015-May-13 23:01N 74°54' E 007°38'0 0.3 3.8
2015-May-13 22:01N 74°55' E 007°37'0 0.3 3.8
2015-May-13 21:01N 74°55' E 007°36'0 0.2 3.8
2015-May-13 20:01N 74°55' E 007°36'0 0.1 3.8
2015-May-13 19:01N 74°55' E 007°35'0 0.1 3.8
2015-May-13 18:01N 74°55' E 007°35'0 0.1 3.8
2015-May-13 17:01N 74°55' E 007°36'0 0.2 3.8
2015-May-13 16:01N 74°54' E 007°36'0 0.2 3.8
2015-May-13 15:01N 74°54' E 007°37'0 0.2 3.8
2015-May-13 14:01N 74°54' E 007°37'0 0.1 3.8
2015-May-13 12:01N 74°54' E 007°38'0 0.0 3.8
2015-May-13 11:01N 74°54' E 007°38'   3.8
Track history (hours):
 
Tides and Currents Weather Stations Pressure Air Temp Water Temp Dewpoint Dewpoint Depression Visibility Wind Speed Wind Dir Waves Ship Positions

Drifting buoy 44845

Last reported at 2015-May-23 11:01 UTC. Time now 2015-May-23 11:57 UTC.
Position N 75°04' E 010°56'.

Water temperature 3.9 ° C

Date/timePositionNaut miles runAvg speedWind from/ knotsBaromVisibWave heightAir tempDewpointWater temp
2015-May-23 11:01N 75°04' E 010°56'1 1.0 3.9
2015-May-23 10:01N 75°05' E 010°56'1 0.8 4.1
2015-May-23 09:01N 75°06' E 010°57'1 0.5 4.4
2015-May-23 08:01N 75°06' E 010°59'0 0.4 4.6
2015-May-23 07:01N 75°06' E 011°00'0 0.4 4.5
2015-May-23 06:01N 75°05' E 011°00'0 0.5 4.5
2015-May-23 05:01N 75°05' E 010°58'1 0.9 4.1
2015-May-23 04:01N 75°06' E 010°56'1 0.9 3.8
2015-May-23 03:01N 75°07' E 010°54'1 0.9 3.8
2015-May-23 02:01N 75°08' E 010°55'1 1.0 3.9
2015-May-23 01:01N 75°09' E 010°56'1 0.7 4.1
2015-May-23 00:01N 75°09' E 010°58'0 0.4 4.4
2015-May-22 23:01N 75°09' E 010°59'0 0.2 4.4
2015-May-22 22:01N 75°09' E 010°59'0 0.4 4.3
2015-May-22 21:01N 75°09' E 010°58'1 0.7 3.8
2015-May-22 20:01N 75°09' E 010°56'1 0.9 3.8
2015-May-22 19:01N 75°10' E 010°53'1 0.9 3.8
2015-May-22 18:01N 75°10' E 010°52'1 0.8 3.9
2015-May-22 17:01N 75°11' E 010°51'1 0.7 4.1
2015-May-22 16:01N 75°12' E 010°53'1 0.7 4.3
2015-May-22 15:01N 75°12' E 010°54'0 0.5 4.6
2015-May-22 14:01N 75°12' E 010°56'0 0.3 4.5
2015-May-22 13:01N 75°12' E 010°57'0 0.3 4.4
2015-May-22 12:01N 75°12' E 010°56'1 0.7 4.0
2015-May-22 11:01N 75°12' E 010°53'1 1.0 3.8
2015-May-22 10:01N 75°13' E 010°50'1 1.0 3.7
2015-May-22 09:01N 75°14' E 010°48'1 0.8 3.8
2015-May-22 08:01N 75°15' E 010°47'1 0.7 4.0
2015-May-22 07:01N 75°15' E 010°48'1 0.5 4.2
2015-May-22 06:01N 75°16' E 010°49'0 0.5 4.3
2015-May-22 05:01N 75°15' E 010°51'0 0.5 4.4
2015-May-22 04:01N 75°15' E 010°52'0 0.4 4.4
2015-May-22 03:01N 75°15' E 010°52'1 0.6 4.2
2015-May-22 02:01N 75°15' E 010°49'1 1.0 4.1
2015-May-22 01:01N 75°15' E 010°46'1 1.0 3.9
2015-May-22 00:01N 75°16' E 010°43'1 0.8 3.9
2015-May-21 23:01N 75°17' E 010°41'1 0.7 1.7
2015-May-21 22:01N 75°17' E 010°41'1 0.7 2.3
2015-May-21 21:01N 75°18' E 010°43'0 0.4 2.6
2015-May-21 20:01N 75°18' E 010°44'0 0.3 2.6
2015-May-21 19:01N 75°18' E 010°45'1 0.6 2.7
2015-May-21 18:01N 75°17' E 010°46'1 0.5 2.7
2015-May-21 17:01N 75°17' E 010°45'1 1.0 2.7
2015-May-21 16:01N 75°17' E 010°41'1 1.1 2.5
2015-May-21 15:01N 75°17' E 010°37'1 0.9 2.2
2015-May-21 14:01N 75°18' E 010°34'1 0.7 2.2
2015-May-21 13:01N 75°18' E 010°33'1 0.7 2.4
2015-May-21 12:01N 75°19' E 010°33'1 0.6 2.7
2015-May-21 11:01N 75°20' E 010°35'1 0.6 2.8
2015-May-21 10:01N 75°20' E 010°37'1 0.6 2.8
2015-May-21 09:01N 75°19' E 010°38'1 0.5 2.7
2015-May-21 08:01N 75°19' E 010°38'1 0.7 2.7
2015-May-21 07:01N 75°18' E 010°36'1 1.0 2.7
2015-May-21 06:01N 75°18' E 010°32'1 1.1 2.6
2015-May-21 05:01N 75°18' E 010°28'1 0.8 2.4
2015-May-21 04:01N 75°19' E 010°25'1 0.5 2.2
2015-May-21 03:01N 75°19' E 010°24'0 0.5 2.2
2015-May-21 02:01N 75°19' E 010°24'0 0.5 2.3
2015-May-21 01:01N 75°20' E 010°25'1 0.5 2.3
2015-May-21 00:01N 75°20' E 010°27'1 0.6 2.7
2015-May-20 23:01N 75°20' E 010°29'1 0.6 2.8
2015-May-20 22:01N 75°19' E 010°30'1 0.9 2.9
2015-May-20 21:01N 75°18' E 010°27'1 1.1 2.9
2015-May-20 20:01N 75°18' E 010°22'1 1.1 2.7
2015-May-20 19:01N 75°18' E 010°18'1 0.7 2.4
2015-May-20 18:01N 75°18' E 010°16'0 0.2 2.2
2015-May-20 17:01N 75°19' E 010°15'0 0.4 2.3
2015-May-20 16:01N 75°19' E 010°17'1 0.6 2.4
2015-May-20 15:01N 75°19' E 010°19'1 0.7 2.7
2015-May-20 14:01N 75°19' E 010°22'1 0.8 3.1
2015-May-20 13:01N 75°18' E 010°23'1 1.0 3.5
2015-May-20 12:01N 75°17' E 010°20'1 1.2 3.5
2015-May-20 11:01N 75°17' E 010°16'1 1.4 3.5
2015-May-20 10:01N 75°17' E 010°11'1 1.3 3.5
2015-May-20 09:01N 75°18' E 010°05'1 1.1 3.5
2015-May-20 08:01N 75°18' E 010°01'1 0.8 3.5
2015-May-20 07:01N 75°18' E 009°58'1 0.6 3.2
2015-May-20 06:01N 75°18' E 009°56'1 0.5 3.1
2015-May-20 05:01N 75°18' E 009°54'1 0.5 3.0
2015-May-20 04:01N 75°18' E 009°52'1 0.6 3.2
2015-May-20 03:01N 75°17' E 009°50'1 0.8 3.3
2015-May-20 02:01N 75°17' E 009°48'2 1.1 3.4
2015-May-20 00:01N 75°16' E 009°39'1 1.1 3.5
2015-May-19 23:01N 75°16' E 009°35'1 0.8 3.0
2015-May-19 22:01N 75°17' E 009°32'0 0.4 3.0
2015-May-19 21:01N 75°17' E 009°31'0 0.0 2.2
2015-May-19 20:01N 75°17' E 009°31'0 0.4 2.2
2015-May-19 19:01N 75°17' E 009°33'1 0.6 2.3
2015-May-19 18:01N 75°17' E 009°35'1 0.6 2.3
2015-May-19 17:01N 75°17' E 009°37'0 0.5 2.4
2015-May-19 16:01N 75°16' E 009°39'0 0.4 2.3
2015-May-19 15:01N 75°16' E 009°40'0 0.3 2.3
2015-May-19 14:01N 75°16' E 009°41'0 0.2 2.3
2015-May-19 13:01N 75°16' E 009°41'0 0.1 2.2
2015-May-19 12:01N 75°16' E 009°41'0 0.1 2.3
2015-May-19 11:01N 75°16' E 009°41'0 0.2 2.3
2015-May-19 10:01N 75°15' E 009°40'0 0.1 2.1
2015-May-19 09:01N 75°15' E 009°40'0 0.1 2.1
2015-May-19 08:01N 75°15' E 009°40'0 0.1 2.0
2015-May-19 07:01N 75°15' E 009°40'0 0.2 1.8
2015-May-19 06:01N 75°15' E 009°41'0 0.3 2.1
2015-May-19 05:01N 75°15' E 009°42'0 0.5 1.5
2015-May-19 04:01N 75°15' E 009°44'1 0.6 1.6
2015-May-19 03:01N 75°15' E 009°47'1 0.8 1.6
2015-May-19 02:01N 75°15' E 009°50'1 0.9 1.7
2015-May-19 01:01N 75°14' E 009°53'1 0.7 1.6
2015-May-19 00:01N 75°14' E 009°56'0 0.4 1.6
2015-May-18 23:01N 75°14' E 009°57'1 0.5 1.7
2015-May-18 22:01N 75°14' E 009°55'1 0.9 1.8
2015-May-18 21:01N 75°13' E 009°52'1 1.1 2.0
2015-May-18 20:01N 75°13' E 009°48'1 1.1 2.0
2015-May-18 19:01N 75°12' E 009°45'1 0.9 2.0
2015-May-18 18:01N 75°12' E 009°42'1 0.8 2.1
2015-May-18 17:01N 75°11' E 009°39'1 0.7 2.1
2015-May-18 16:01N 75°11' E 009°36'1 0.6 2.1
2015-May-18 15:01N 75°11' E 009°34'1 0.6 2.1
2015-May-18 14:01N 75°10' E 009°32'1 0.8 2.3
2015-May-18 13:01N 75°10' E 009°30'1 0.9 2.4
2015-May-18 12:01N 75°09' E 009°26'1 1.0 2.6
2015-May-18 11:01N 75°09' E 009°23'1 1.0 2.3
2015-May-18 10:01N 75°09' E 009°19'1 0.9 2.1
2015-May-18 09:01N 75°09' E 009°15'1 0.8 1.9
2015-May-18 08:01N 75°09' E 009°12'1 0.7 1.9
2015-May-18 07:01N 75°09' E 009°09'1 0.6 1.9
2015-May-18 06:01N 75°09' E 009°07'1 0.5 1.7
2015-May-18 05:01N 75°09' E 009°05'0 0.4 1.5
2015-May-18 04:01N 75°09' E 009°04'0 0.4 1.3
2015-May-18 03:01N 75°09' E 009°02'0 0.4 1.1
2015-May-18 02:01N 75°09' E 009°01'0 0.4 0.8
2015-May-18 01:01N 75°09' E 008°59'0 0.4 1.1
2015-May-18 00:01N 75°09' E 008°58'0 0.4 1.2
2015-May-17 23:01N 75°09' E 008°56'0 0.4 1.3
2015-May-17 22:01N 75°09' E 008°55'0 0.4 1.4
2015-May-17 21:01N 75°09' E 008°53'0 0.3 1.4
2015-May-17 20:01N 75°08' E 008°52'0 0.3 1.4
2015-May-17 19:01N 75°08' E 008°51'0 0.3 1.5
2015-May-17 18:01N 75°08' E 008°50'0 0.2 2.0
2015-May-17 17:01N 75°08' E 008°49'0 0.2 2.0
2015-May-17 16:01N 75°08' E 008°48'0 0.2 1.9
2015-May-17 14:01N 75°08' E 008°47'0 0.2 1.5
2015-May-17 13:01N 75°08' E 008°46'0 0.3 1.2
2015-May-17 12:01N 75°08' E 008°46'0 0.2 1.0
2015-May-17 11:01N 75°07' E 008°45'0 0.3 0.9
2015-May-17 10:01N 75°07' E 008°44'0 0.2 0.8
2015-May-17 09:01N 75°07' E 008°44'0 0.3 0.6
2015-May-17 08:01N 75°07' E 008°43'0 0.3 1.4
2015-May-17 07:01N 75°06' E 008°43'0 0.4 0.1
2015-May-17 06:01N 75°06' E 008°42'0 0.3 -0.0
2015-May-17 05:01N 75°06' E 008°42'0 0.2 0.5
2015-May-17 04:01N 75°06' E 008°42'0 0.2 0.1
2015-May-17 03:01N 75°06' E 008°42'0 0.3 0.5
2015-May-17 02:01N 75°05' E 008°41'0 0.2 0.4
2015-May-17 01:01N 75°05' E 008°41'0 0.3 0.7
2015-May-17 00:01N 75°05' E 008°40'0 0.4 0.9
2015-May-16 23:01N 75°05' E 008°40'0 0.4 1.5
2015-May-16 22:01N 75°04' E 008°40'0 0.4 1.9
2015-May-16 21:01N 75°04' E 008°40'0 0.4 1.6
2015-May-16 20:01N 75°03' E 008°40'0 0.4 1.7
2015-May-16 19:01N 75°03' E 008°40'0 0.4 1.1
2015-May-16 18:01N 75°03' E 008°40'0 0.4 4.4
2015-May-16 17:01N 75°02' E 008°40'0 0.4
2015-May-16 16:01N 75°02' E 008°40'0 0.2 4.0
2015-May-16 15:01N 75°02' E 008°40'0 0.3 4.2
2015-May-16 14:01N 75°01' E 008°39'0 0.4 4.1
2015-May-16 13:01N 75°01' E 008°39'1 0.8 4.0
2015-May-16 12:01N 75°00' E 008°38'0 0.0 4.0
2015-May-16 11:01N 75°00' E 008°38'0 0.4 4.0
2015-May-16 10:01N 75°00' E 008°37'0 0.5 4.0
2015-May-16 09:01N 74°60' E 008°36'1 0.5 3.9
2015-May-16 08:01N 74°59' E 008°35'0 0.5 3.9
2015-May-16 07:01N 74°59' E 008°35'0 0.4 3.9
2015-May-16 06:01N 74°58' E 008°35'0 0.4 3.9
2015-May-16 05:01N 74°58' E 008°34'0 0.5 3.8
2015-May-16 04:01N 74°58' E 008°33'0 0.5 3.8
2015-May-16 03:01N 74°57' E 008°31'1 0.5 3.8
2015-May-16 02:01N 74°57' E 008°30'1 0.5 3.9
2015-May-16 00:01N 74°56' E 008°27'0 0.4 3.9
2015-May-15 23:01N 74°56' E 008°26'0 0.4 3.8
2015-May-15 22:01N 74°56' E 008°24'1 0.5 3.7
2015-May-15 21:01N 74°55' E 008°23'1 0.5 3.7
2015-May-15 20:01N 74°55' E 008°21'0 0.5 3.8
2015-May-15 19:01N 74°55' E 008°20'0 0.4 3.8
2015-May-15 18:01N 74°55' E 008°19'0 0.4 3.8
2015-May-15 17:01N 74°54' E 008°17'0 0.4 3.8
2015-May-15 16:01N 74°54' E 008°16'0 0.4 3.8
2015-May-15 15:01N 74°54' E 008°15'0 0.4 3.7
2015-May-15 14:01N 74°54' E 008°14'0 0.4 3.7
2015-May-15 13:01N 74°53' E 008°12'0 0.3 3.7
2015-May-15 12:01N 74°53' E 008°11'0 0.4 3.7
2015-May-15 11:01N 74°53' E 008°10'0 0.4 3.8
2015-May-15 10:01N 74°53' E 008°08'1 0.5 3.8
2015-May-15 09:01N 74°53' E 008°07'0 0.4 3.8
2015-May-15 08:01N 74°52' E 008°05'0 0.3 3.8
2015-May-15 07:01N 74°52' E 008°04'0 0.3 3.8
2015-May-15 06:01N 74°52' E 008°03'0 0.2 3.8
2015-May-15 05:01N 74°52' E 008°03'0 0.2 3.8
2015-May-15 04:01N 74°52' E 008°02'0 0.2 3.8
2015-May-15 03:01N 74°51' E 008°01'0 0.2 3.9
2015-May-15 02:01N 74°51' E 008°01'0 0.2 3.9
2015-May-15 01:01N 74°51' E 008°00'0 0.2 3.9
2015-May-15 00:01N 74°51' E 007°60'0 0.3 3.9
2015-May-14 23:01N 74°51' E 007°59'0 0.3 3.9
2015-May-14 22:01N 74°51' E 007°57'0 0.3 3.9
2015-May-14 21:01N 74°51' E 007°56'0 0.2 3.9
2015-May-14 20:01N 74°51' E 007°56'0 0.2 3.8
2015-May-14 19:01N 74°51' E 007°55'0 0.1 3.8
2015-May-14 18:01N 74°51' E 007°55'0 0.1 3.8
2015-May-14 17:01N 74°51' E 007°54'0 0.3 3.8
2015-May-14 16:01N 74°51' E 007°53'0 0.0 3.8
2015-May-14 15:01N 74°51' E 007°53'0 0.2 3.8
2015-May-14 14:01N 74°51' E 007°53'0 0.3 3.8
2015-May-14 13:01N 74°51' E 007°52'1 0.5 3.8
2015-May-14 12:01N 74°51' E 007°50'1 0.6 4.2
2015-May-14 11:01N 74°52' E 007°49'1 0.6 4.3
2015-May-14 10:01N 74°52' E 007°47'1 0.5 4.4
2015-May-14 09:01N 74°52' E 007°45'0 0.4 4.4
2015-May-14 08:01N 74°52' E 007°43'0 0.3 4.4
2015-May-14 07:01N 74°52' E 007°42'0 0.2 4.4
2015-May-14 06:01N 74°52' E 007°41'0 0.3 4.4
2015-May-14 05:01N 74°53' E 007°40'0 0.3 4.4
2015-May-14 04:01N 74°53' E 007°40'0 0.2 4.4
2015-May-14 03:01N 74°53' E 007°39'0 0.3 4.3
2015-May-14 02:01N 74°53' E 007°39'0 0.3 4.3
2015-May-14 01:01N 74°54' E 007°39'0 0.4 4.3
2015-May-14 00:01N 74°54' E 007°38'0 0.3 4.0
2015-May-13 23:01N 74°54' E 007°38'0 0.3 3.8
2015-May-13 22:01N 74°55' E 007°37'0 0.3 3.8
2015-May-13 21:01N 74°55' E 007°36'0 0.2 3.8
2015-May-13 20:01N 74°55' E 007°36'0 0.1 3.8
2015-May-13 19:01N 74°55' E 007°35'0 0.1 3.8
2015-May-13 18:01N 74°55' E 007°35'0 0.1 3.8
2015-May-13 17:01N 74°55' E 007°36'0 0.2 3.8
2015-May-13 16:01N 74°54' E 007°36'0 0.2 3.8
2015-May-13 15:01N 74°54' E 007°37'0 0.2 3.8
2015-May-13 14:01N 74°54' E 007°37'0 0.1 3.8
2015-May-13 12:01N 74°54' E 007°38'0 0.0 3.8
2015-May-13 11:01N 74°54' E 007°38'   3.8

Dump ship's entire track history